Time;durP1;ratioP1;P1;durP2;ratioP2;P2;SDS_P1;SDS_P2;PMS_P1;PMS_P2;Temp;Humidity;BMP_temperature;BMP_pressure;BME280_temperature;BME280_humidity;BME280_pressure;Samples;Min_cycle;Max_cycle;Signal;HPM_P1;HPM_P2
2022/04/28 00:02:00;;;;;;;1.33;1.15;;;;;;;9.49;100.00;101355.78;7396759;19;20846;-92
2022/04/28 00:04:26;;;;;;;4.15;2.00;;;;;;;9.46;100.00;101356.66;7397498;19;20015;-92
2022/04/28 00:06:53;;;;;;;1.52;1.42;;;;;;;9.46;100.00;101351.09;7398136;19;20362;-92
2022/04/28 00:09:19;;;;;;;1.75;1.27;;;;;;;9.45;100.00;101349.53;7396942;19;20017;-88
2022/04/28 00:11:45;;;;;;;0.95;0.95;;;;;;;9.45;100.00;101343.97;7397821;19;20491;-86
2022/04/28 00:14:11;;;;;;;2.65;1.20;;;;;;;9.44;100.00;101342.41;7397136;19;20084;-89
2022/04/28 00:16:37;;;;;;;3.58;3.28;;;;;;;9.41;100.00;101343.25;7398306;19;20349;-91
2022/04/28 00:19:03;;;;;;;10.43;2.38;;;;;;;9.38;100.00;101338.56;7395767;19;20098;-92
2022/04/28 00:21:30;;;;;;;2.50;1.98;;;;;;;9.39;100.00;101342.91;7399265;19;20011;-89
2022/04/28 00:23:56;;;;;;;1.58;1.48;;;;;;;9.36;100.00;101344.56;7395876;19;20023;-89
2022/04/28 00:26:22;;;;;;;1.92;1.38;;;;;;;9.39;100.00;101345.69;7395115;19;20018;-88
2022/04/28 00:28:48;;;;;;;2.00;1.30;;;;;;;9.38;100.00;101352.44;7397090;19;20367;-88
2022/04/28 00:31:14;;;;;;;1.88;1.13;;;;;;;9.32;100.00;101338.28;7398435;19;20448;-88
2022/04/28 00:33:41;;;;;;;3.38;0.93;;;;;;;9.38;100.00;101349.66;7399351;19;20030;-88
2022/04/28 00:36:08;;;;;;;1.65;1.38;;;;;;;9.39;100.00;101352.03;7394868;19;20028;-89
2022/04/28 00:38:34;;;;;;;2.95;2.25;;;;;;;9.36;100.00;101352.09;7398224;19;20505;-87
2022/04/28 00:41:01;;;;;;;1.65;1.55;;;;;;;9.34;100.00;101348.97;7397092;19;20461;-87
2022/04/28 00:43:31;;;;;;;7.30;2.92;;;;;;;9.33;100.00;101356.56;7395990;19;20018;-87
2022/04/28 00:45:57;;;;;;;3.70;2.13;;;;;;;9.27;100.00;101360.28;7396013;19;20035;-89
2022/04/28 00:51:12;;;;;;;8.55;2.22;;;;;;;9.29;100.00;101352.28;7394511;19;20018;-94
2022/04/28 00:53:48;;;;;;;15.02;2.22;;;;;;;9.28;100.00;101350.69;7395520;19;20027;-89
2022/04/28 00:56:16;;;;;;;2.90;1.42;;;;;;;9.28;100.00;101350.69;7389772;19;20487;-84
2022/04/28 00:58:43;;;;;;;5.47;1.50;;;;;;;9.28;100.00;101351.50;7393813;19;20010;-88
2022/04/28 01:01:09;;;;;;;5.78;1.60;;;;;;;9.26;100.00;101345.56;7396208;19;20010;-90
2022/04/28 01:03:35;;;;;;;2.47;1.40;;;;;;;9.23;100.00;101348.41;7396268;19;20011;-89
2022/04/28 01:06:02;;;;;;;2.95;1.55;;;;;;;9.14;100.00;101360.91;7395635;19;20034;-88
2022/04/28 01:08:29;;;;;;;2.95;1.35;;;;;;;9.10;100.00;101362.97;7396513;19;20650;-88
2022/04/28 01:10:56;;;;;;;6.40;1.63;;;;;;;9.06;100.00;101359.50;7395045;19;20456;-89
2022/04/28 01:13:23;;;;;;;3.17;1.65;;;;;;;9.05;100.00;101357.91;7392259;19;20006;-88
2022/04/28 01:16:01;;;;;;;1.85;1.75;;;;;;;9.06;100.00;101362.28;7396465;19;20070;-89
2022/04/28 01:18:27;;;;;;;7.05;1.85;;;;;;;9.00;100.00;101363.22;7395394;19;20015;-88
2022/04/28 01:20:55;;;;;;;4.45;2.83;;;;;;;9.02;100.00;101369.91;7396820;19;20028;-89
2022/04/28 01:23:21;;;;;;;3.10;1.50;;;;;;;9.06;100.00;101359.50;7394652;19;20014;-90
2022/04/28 01:25:48;;;;;;;4.95;1.75;;;;;;;9.12;100.00;101357.78;7392902;19;20030;-85
2022/04/28 01:28:14;;;;;;;1.95;1.75;;;;;;;9.11;100.00;101359.00;7390603;19;20010;-93
2022/04/28 01:30:41;;;;;;;10.23;2.15;;;;;;;9.20;100.00;101363.19;7391869;19;20015;-87
2022/04/28 01:33:09;;;;;;;3.97;1.40;;;;;;;9.20;100.00;101371.53;7390990;19;20014;-81
2022/04/28 01:35:39;;;;;;;5.43;1.77;;;;;;;9.15;100.00;101361.69;7392322;19;20081;-87
2022/04/28 01:38:05;;;;;;;2.53;1.48;;;;;;;9.15;100.00;101365.28;7393816;19;20517;-84
2022/04/28 01:40:32;;;;;;;1.20;1.10;;;;;;;9.16;100.00;101371.59;7394752;19;20232;-87
2022/04/28 01:43:00;;;;;;;4.22;1.02;;;;;;;9.12;100.00;101371.66;7393383;19;20006;-89
2022/04/28 01:45:27;;;;;;;0.80;0.77;;;;;;;9.05;100.00;101366.25;7395840;19;20017;-94
2022/04/28 01:48:08;;;;;;;5.28;1.70;;;;;;;9.10;100.00;101367.75;7396827;19;20097;-92
2022/04/28 01:54:57;;;;;;;3.13;1.52;;;;;;;9.13;100.00;101362.13;7395316;19;20890;-94
2022/04/28 01:56:24;;;;;;;2.90;1.23;;;;;;;9.07;100.00;101374.19;7395279;19;20102;-93
2022/04/28 01:59:11;;;;;;;6.65;1.85;;;;;;;9.03;100.00;101371.47;7395724;19;20010;-92
2022/04/28 02:01:55;;;;;;;2.60;1.15;;;;;;;9.08;100.00;101375.72;7396852;19;20006;-89
2022/04/28 02:04:21;;;;;;;2.30;1.05;;;;;;;9.04;100.00;101375.81;7393471;19;20047;-90
2022/04/28 02:06:50;;;;;;;1.65;1.55;;;;;;;9.00;100.00;101375.09;7394144;19;20015;-89
2022/04/28 02:09:17;;;;;;;1.13;0.50;;;;;;;8.95;100.00;101377.59;7394188;19;20471;-89
2022/04/28 02:11:43;;;;;;;1.95;1.13;;;;;;;8.92;100.00;101368.09;7395750;19;20014;-90
2022/04/28 02:14:32;;;;;;;16.38;0.77;;;;;;;8.95;100.00;101378.38;7393278;19;20603;-89
2022/04/28 02:17:22;;;;;;;1.73;0.85;;;;;;;8.90;100.00;101375.31;7391065;19;20014;-88
2022/04/28 02:19:49;;;;;;;2.83;1.30;;;;;;;8.86;100.00;101375.38;7390724;19;20489;-87
2022/04/28 02:22:16;;;;;;;2.05;1.05;;;;;;;8.86;100.00;101378.16;7394556;19;20007;-90
2022/04/28 02:24:43;;;;;;;7.18;1.10;;;;;;;8.85;100.00;101373.81;7391124;19;20370;-88
2022/04/28 02:27:10;;;;;;;1.15;1.05;;;;;;;8.82;100.00;101377.44;7390166;19;20010;-90
2022/04/28 02:29:36;;;;;;;3.45;1.52;;;;;;;8.81;100.00;101386.22;7392633;19;20018;-90
2022/04/28 02:32:03;;;;;;;0.82;0.77;;;;;;;8.76;100.00;101379.16;7395560;19;20018;-92
2022/04/28 02:34:29;;;;;;;1.42;1.02;;;;;;;8.74;100.00;101378.81;7393330;19;20014;-88
2022/04/28 02:36:56;;;;;;;1.85;1.05;;;;;;;8.71;100.00;101374.09;7392919;19;20019;-91
2022/04/28 02:39:23;;;;;;;3.03;0.55;;;;;;;8.68;100.00;101380.50;7393244;19;20014;-88
2022/04/28 02:41:52;;;;;;;0.57;0.57;;;;;;;8.64;100.00;101373.44;7397576;19;20584;-88
2022/04/28 02:44:18;;;;;;;1.88;0.70;;;;;;;8.66;100.00;101371.03;7398663;19;20010;-91
2022/04/28 02:46:48;;;;;;;2.35;0.57;;;;;;;8.70;100.00;101371.75;7399096;19;20033;-89
2022/04/28 02:49:17;;;;;;;0.43;0.43;;;;;;;8.71;100.00;101374.09;7400434;19;20018;-88
2022/04/28 02:51:44;;;;;;;1.65;0.50;;;;;;;8.79;100.00;101369.94;7400088;19;20696;-91
2022/04/28 02:54:11;;;;;;;1.20;0.98;;;;;;;8.79;100.00;101363.63;7400865;19;20031;-94
2022/04/28 02:56:45;;;;;;;1.67;0.73;;;;;;;8.79;100.00;101367.19;7397114;19;20019;-94
2022/04/28 02:59:11;;;;;;;1.45;0.95;;;;;;;8.84;100.00;101371.44;7397690;19;20017;-85
2022/04/28 03:01:37;;;;;;;4.60;1.38;;;;;;;8.85;100.00;101373.81;7397789;19;20532;-84
2022/04/28 03:04:05;;;;;;;1.88;1.27;;;;;;;8.81;100.00;101375.91;7394066;19;20010;-84
2022/04/28 03:12:00;;;;;;;1.50;1.08;;;;;;;8.90;100.00;101376.09;7400288;19;20070;-86
2022/04/28 03:14:27;;;;;;;1.23;1.10;;;;;;;8.89;100.00;101373.75;7397576;19;20024;-85
2022/04/28 03:16:53;;;;;;;0.77;0.77;;;;;;;8.87;100.00;101371.41;7397861;19;20010;-84
2022/04/28 03:19:19;;;;;;;4.82;0.95;;;;;;;8.85;100.00;101378.59;7397923;19;20041;-84
2022/04/28 03:21:45;;;;;;;9.75;0.80;;;;;;;8.87;100.00;101376.97;7398942;19;20031;-84
2022/04/28 03:24:11;;;;;;;29.35;1.58;;;;;;;8.85;100.00;101382.16;7393774;19;20011;-87
2022/04/28 03:26:39;;;;;;;0.73;0.73;;;;;;;8.82;100.00;101374.66;7397398;19;20025;-87
2022/04/28 03:29:07;;;;;;;1.05;0.98;;;;;;;8.85;100.00;101379.38;7396376;19;20036;-87
2022/04/28 03:31:33;;;;;;;2.00;1.05;;;;;;;8.90;100.00;101376.09;7396631;19;20867;-86
2022/04/28 03:34:14;;;;;;;1.13;0.50;;;;;;;8.92;100.00;101379.22;7394630;19;20354;-81
2022/04/28 03:36:52;;;;;;;6.15;0.68;;;;;;;8.93;100.00;101386.34;7391116;19;20369;-85
2022/04/28 03:39:26;;;;;;;1.75;0.45;;;;;;;8.92;100.00;101382.00;7390601;19;20038;-83
2022/04/28 03:41:52;;;;;;;1.15;0.60;;;;;;;8.91;100.00;101377.66;7393289;19;20043;-84
2022/04/28 03:44:18;;;;;;;1.77;0.85;;;;;;;8.88;100.00;101384.06;7395944;19;20022;-87
2022/04/28 03:46:44;;;;;;;2.03;0.98;;;;;;;8.85;100.00;101386.94;7400171;19;20022;-85
2022/04/28 03:49:11;;;;;;;0.57;0.57;;;;;;;8.85;100.00;101384.16;7399419;19;20015;-93
2022/04/28 03:51:38;;;;;;;1.48;0.75;;;;;;;8.88;100.00;101389.63;7398831;19;20014;-93
2022/04/28 03:54:04;;;;;;;0.60;0.60;;;;;;;8.87;100.00;101381.72;7400154;19;20021;-94
2022/04/28 03:56:33;;;;;;;0.80;0.80;;;;;;;8.85;100.00;101384.94;7402525;19;20081;-96
2022/04/28 03:59:05;;;;;;;1.20;1.10;;;;;;;8.86;100.00;101380.94;7394298;19;20034;-49
2022/04/28 04:01:49;;;;;;;1.10;1.00;;;;;;;8.83;100.00;101376.25;7390468;19;20502;-49
2022/04/28 04:04:15;;;;;;;0.98;0.70;;;;;;;8.88;100.00;101378.50;7389185;19;20380;-49
2022/04/28 04:06:46;;;;;;;1.75;1.13;;;;;;;8.86;100.00;101383.72;7391721;19;20006;-47
2022/04/28 04:09:36;;;;;;;1.05;0.35;;;;;;;8.86;100.00;101392.03;7390239;19;20766;-47
2022/04/28 04:12:05;;;;;;;2.05;0.57;;;;;;;8.86;100.00;101380.16;7393794;19;20010;-47
2022/04/28 04:14:44;;;;;;;13.75;0.98;;;;;;;8.84;100.00;101380.59;7390006;19;20028;-47
2022/04/28 04:17:10;;;;;;;1.33;0.55;;;;;;;8.81;100.00;101378.69;7392678;19;20376;-47
2022/04/28 04:19:37;;;;;;;0.82;0.82;;;;;;;8.76;100.00;101384.72;7390501;19;20006;-47
2022/04/28 04:22:03;;;;;;;1.02;0.77;;;;;;;8.69;100.00;101387.63;7395801;19;20006;-49
2022/04/28 04:24:30;;;;;;;1.00;0.85;;;;;;;8.70;100.00;101388.41;7388451;19;20095;-49
2022/04/28 04:26:58;;;;;;;1.13;0.57;;;;;;;8.74;100.00;101398.25;7389704;19;20042;-49
2022/04/28 04:29:46;;;;;;;2.05;1.52;;;;;;;8.73;100.00;101390.31;7392211;19;20011;-49
2022/04/28 04:32:32;;;;;;;0.85;0.85;;;;;;;8.72;100.00;101386.78;7395167;19;20011;-49
2022/04/28 04:35:10;;;;;;;0.55;0.45;;;;;;;8.72;100.00;101386.78;7391578;19;20102;-49
2022/04/28 04:37:45;;;;;;;6.07;0.52;;;;;;;8.73;100.00;101391.09;7388613;19;20022;-49
2022/04/28 04:40:13;;;;;;;0.70;0.40;;;;;;;8.77;100.00;101389.03;7389372;19;20404;-49
2022/04/28 04:42:39;;;;;;;1.08;0.63;;;;;;;8.80;100.00;101388.19;7389086;19;20014;-49
2022/04/28 04:45:08;;;;;;;1.27;0.93;;;;;;;8.83;100.00;101386.56;7388450;19;20022;-49
2022/04/28 04:47:53;;;;;;;0.40;0.40;;;;;;;8.82;100.00;101390.53;7388826;19;20011;-49
2022/04/28 04:50:38;;;;;;;1.75;0.82;;;;;;;8.78;100.00;101385.06;7389911;19;20467;-49
2022/04/28 04:53:07;;;;;;;1.75;0.50;;;;;;;8.72;100.00;101384.00;7388394;19;20010;-49
2022/04/28 04:55:34;;;;;;;0.52;0.52;;;;;;;8.73;100.00;101385.56;7389623;19;20022;-49
2022/04/28 04:58:06;;;;;;;4.05;0.95;;;;;;;8.75;100.00;101385.91;7390819;19;20018;-50
2022/04/28 05:00:33;;;;;;;1.55;1.40;;;;;;;8.79;100.00;101380.31;7391199;19;20467;-49
2022/04/28 05:03:25;;;;;;;3.55;0.90;;;;;;;8.78;100.00;101390.63;7389196;19;20113;-49
2022/04/28 05:06:10;;;;;;;1.92;0.80;;;;;;;8.86;100.00;101392.03;7393942;19;20074;-49
2022/04/28 05:08:53;;;;;;;1.27;0.57;;;;;;;8.89;100.00;101390.41;7392116;19;20015;-49
2022/04/28 05:11:20;;;;;;;2.25;0.80;;;;;;;8.92;100.00;101393.09;7393902;19;20838;-49
2022/04/28 05:14:05;;;;;;;1.00;0.85;;;;;;;9.27;100.00;101388.81;7391270;19;20018;-49
2022/04/28 05:16:31;;;;;;;0.60;0.60;;;;;;;9.32;100.00;101384.75;7391446;19;20014;-49
2022/04/28 05:19:06;;;;;;;3.10;1.20;;;;;;;9.36;100.00;101402.16;7389015;19;20010;-49
2022/04/28 05:21:35;;;;;;;0.93;0.75;;;;;;;9.37;100.00;101396.19;7392122;19;20344;-49
2022/04/28 05:24:25;;;;;;;0.35;0.30;;;;;;;9.40;100.00;101409.19;7385935;19;20006;-49
2022/04/28 05:27:17;;;;;;;0.63;0.40;;;;;;;9.54;100.00;101405.34;7389294;19;20011;-49
2022/04/28 05:29:52;;;;;;;0.55;0.50;;;;;;;9.65;100.00;101411.44;7390540;19;20014;-49
2022/04/28 05:32:37;;;;;;;3.17;0.80;;;;;;;9.70;100.00;101408.16;7392558;19;20014;-49
2022/04/28 05:35:17;;;;;;;1.30;0.68;;;;;;;9.85;100.00;101410.16;7388806;19;20017;-49
2022/04/28 05:37:43;;;;;;;0.57;0.30;;;;;;;9.91;100.00;101402.09;7389377;19;20014;-49
2022/04/28 05:40:12;;;;;;;4.38;0.98;;;;;;;9.90;100.00;101408.88;7390442;19;20010;-49
2022/04/28 05:45:46;;;;;;;11.68;1.08;;;;;;;10.02;100.00;101416.56;7389428;19;20351;-49
2022/04/28 05:48:17;;;;;;;1.85;0.57;;;;;;;10.16;100.00;101415.44;7387796;19;20050;-47
2022/04/28 05:50:48;;;;;;;0.93;0.93;;;;;;;10.19;100.00;101414.59;7388462;19;20088;-49
2022/04/28 05:53:18;;;;;;;2.75;0.80;;;;;;;10.25;100.00;101413.63;7387192;19;20030;-49
2022/04/28 05:55:47;;;;;;;0.77;0.55;;;;;;;10.28;100.00;101412.78;7387368;19;20006;-49
2022/04/28 05:58:13;;;;;;;0.98;0.82;;;;;;;10.26;100.00;101420.00;7387835;19;20010;-49
2022/04/28 06:00:47;;;;;;;1.55;1.17;;;;;;;10.24;100.00;101416.84;7388268;19;20048;-49
2022/04/28 06:03:14;;;;;;;1.23;1.13;;;;;;;10.29;100.00;101419.88;7385864;19;20018;-49
2022/04/28 06:05:50;;;;;;;2.10;1.02;;;;;;;10.38;100.00;101420.06;7387298;19;20022;-50
2022/04/28 06:08:16;;;;;;;0.60;0.40;;;;;;;10.46;100.00;101418.66;7387222;19;20030;-49
2022/04/28 06:10:43;;;;;;;0.77;0.73;;;;;;;10.49;100.00;101428.94;7388817;19;20014;-49
2022/04/28 06:13:09;;;;;;;0.60;0.60;;;;;;;10.53;100.00;101429.63;7385599;19;20010;-49
2022/04/28 06:15:35;;;;;;;0.40;0.38;;;;;;;10.56;100.00;101428.75;7392112;19;20387;-47
2022/04/28 06:18:30;;;;;;;0.82;0.60;;;;;;;10.61;100.00;101425.44;7394624;19;20015;-49
2022/04/28 06:21:05;;;;;;;2.67;0.65;;;;;;;10.59;100.00;101427.88;7396150;19;20034;-49
2022/04/28 06:23:37;;;;;;;0.70;0.70;;;;;;;10.57;100.00;101424.75;7394735;19;20502;-49
2022/04/28 06:26:04;;;;;;;0.98;0.90;;;;;;;10.58;100.00;101431.09;7395924;19;20010;-49
2022/04/28 06:28:31;;;;;;;0.82;0.82;;;;;;;10.62;100.00;101429.78;7393914;19;20010;-47
2022/04/28 06:30:57;;;;;;;6.18;1.27;;;;;;;10.69;100.00;101420.47;7395233;19;20011;-47
2022/04/28 06:33:46;;;;;;;1.35;0.40;;;;;;;10.72;100.00;101414.00;7394360;19;20014;-49
2022/04/28 06:36:25;;;;;;;0.55;0.43;;;;;;;10.84;100.00;101420.84;7394424;19;20018;-49
2022/04/28 06:38:52;;;;;;;0.60;0.60;;;;;;;10.91;100.00;101424.25;7393303;19;20007;-49
2022/04/28 06:41:19;;;;;;;2.47;0.43;;;;;;;10.94;100.00;101430.94;7395774;19;20612;-48
2022/04/28 06:43:55;;;;;;;2.17;0.80;;;;;;;10.99;100.00;101427.63;7391763;19;20094;-47
2022/04/28 06:46:31;;;;;;;8.00;0.95;;;;;;;10.95;100.00;101429.72;7397613;19;20020;-48
2022/04/28 06:49:23;;;;;;;2.50;0.63;;;;;;;10.99;100.00;101428.41;7392811;19;20022;-47
2022/04/28 06:51:58;;;;;;;0.93;0.93;;;;;;;11.05;100.00;101428.63;7396536;19;20483;-48
2022/04/28 06:54:43;;;;;;;0.80;0.70;;;;;;;11.11;100.00;101424.09;7393268;19;20014;-47
2022/04/28 06:57:11;;;;;;;5.15;0.80;;;;;;;11.34;100.00;101424.63;7393202;19;20010;-47
2022/04/28 06:59:39;;;;;;;0.73;0.40;;;;;;;11.46;100.00;101430.66;7392699;19;20021;-47
2022/04/28 07:02:09;;;;;;;1.13;0.63;;;;;;;11.52;100.00;101438.03;7395439;19;20363;-47
2022/04/28 07:04:37;;;;;;;10.23;1.92;;;;;;;11.53;100.00;101438.81;7390121;19;20251;-47
2022/04/28 07:07:04;;;;;;;3.90;0.88;;;;;;;11.55;100.00;101444.72;7391624;19;20464;-47
2022/04/28 07:09:30;;;;;;;1.55;0.50;;;;;;;11.59;100.00;101442.59;7392871;19;20428;-47
2022/04/28 07:11:56;;;;;;;0.63;0.55;;;;;;;11.60;100.00;101452.56;7395265;19;20340;-47
2022/04/28 07:14:48;;;;;;;2.05;0.75;;;;;;;11.63;100.00;101455.22;7391517;19;20014;-47
2022/04/28 07:17:33;;;;;;;0.63;0.63;;;;;;;11.64;100.00;101456.03;7397810;19;20034;-47
2022/04/28 07:20:00;;;;;;;1.65;0.85;;;;;;;11.64;100.00;101456.81;7391216;19;20010;-47
2022/04/28 07:22:28;;;;;;;1.05;0.52;;;;;;;11.66;100.00;101465.50;7396119;19;20010;-47
2022/04/28 07:24:54;;;;;;;0.28;0.28;;;;;;;11.72;100.00;101463.75;7392304;19;20006;-47
2022/04/28 07:27:21;;;;;;;6.72;1.52;;;;;;;11.73;100.00;101459.75;7389986;19;20011;-47
2022/04/28 07:29:53;;;;;;;3.58;1.10;;;;;;;11.72;100.00;101463.75;7392341;19;20014;-47
2022/04/28 07:32:37;;;;;;;1.17;0.82;;;;;;;11.81;100.00;101463.91;7396092;19;20013;-47
2022/04/28 07:35:17;;;;;;;2.05;1.05;;;;;;;11.86;100.00;101457.78;7392975;19;20011;-47
2022/04/28 07:38:01;;;;;;;2.80;1.27;;;;;;;11.89;100.00;101459.66;7393036;19;20025;-47
2022/04/28 07:40:36;;;;;;;0.50;0.40;;;;;;;11.87;100.00;101459.31;7393736;19;20022;-47
2022/04/28 07:43:08;;;;;;;1.35;0.80;;;;;;;11.89;100.00;101456.84;7390880;19;20027;-49
2022/04/28 07:45:35;;;;;;;1.85;1.23;;;;;;;11.98;100.00;101470.94;7390534;19;20023;-47
2022/04/28 07:48:10;;;;;;;8.00;0.73;;;;;;;12.09;100.00;101476.97;7390916;19;20474;-47
2022/04/28 07:50:37;;;;;;;2.75;1.27;;;;;;;12.14;100.00;101479.22;7391978;19;20022;-47
2022/04/28 07:53:10;;;;;;;1.92;0.57;;;;;;;12.23;100.00;101474.97;7390788;19;20006;-47
2022/04/28 07:55:37;;;;;;;1.23;1.05;;;;;;;12.39;100.00;101477.66;7393421;19;20417;-48
2022/04/28 07:58:04;;;;;;;1.30;1.13;;;;;;;12.30;100.00;101469.16;7390961;19;20355;-48
2022/04/28 08:00:53;;;;;;;1.00;0.65;;;;;;;12.41;100.00;101481.53;7393567;19;20018;-47
2022/04/28 08:03:19;;;;;;;1.52;1.02;;;;;;;12.45;100.00;101484.22;7389234;19;20011;-47
2022/04/28 08:05:54;;;;;;;2.00;1.23;;;;;;;12.45;100.00;101487.03;7391494;19;20010;-49
2022/04/28 08:08:21;;;;;;;4.78;1.55;;;;;;;12.43;100.00;101484.66;7390855;19;20011;-47
2022/04/28 08:10:48;;;;;;;2.22;1.40;;;;;;;12.43;100.00;101479.06;7390671;19;20025;-47
2022/04/28 08:13:17;;;;;;;1.40;1.05;;;;;;;12.50;100.00;101486.44;7390205;19;20038;-47
2022/04/28 08:16:11;;;;;;;1.55;0.75;;;;;;;12.54;100.00;101489.94;7393320;19;20839;-47
2022/04/28 08:18:42;;;;;;;4.15;1.20;;;;;;;12.64;100.00;101488.78;7390727;19;20015;-47
2022/04/28 08:21:16;;;;;;;2.75;1.13;;;;;;;12.66;100.00;101497.50;7391129;19;20014;-47
2022/04/28 08:23:42;;;;;;;1.23;0.77;;;;;;;12.66;100.00;101497.50;7389238;19;20011;-47
2022/04/28 08:26:09;;;;;;;7.82;1.25;;;;;;;12.71;100.00;101496.94;7391683;19;20854;-47
2022/04/28 08:28:36;;;;;;;0.95;0.88;;;;;;;12.80;100.00;101497.00;7390825;19;20018;-47
2022/04/28 08:31:02;;;;;;;1.73;1.25;;;;;;;12.90;100.00;101501.47;7391398;19;20038;-47
2022/04/28 08:33:28;;;;;;;1.42;0.73;;;;;;;12.87;100.00;101502.38;7389670;19;20495;-47
2022/04/28 08:35:55;;;;;;;3.60;0.55;;;;;;;12.96;100.00;101499.66;7389929;19;20014;-47
2022/04/28 08:38:21;;;;;;;0.77;0.40;;;;;;;12.98;100.00;101519.56;7388587;19;20459;-47
2022/04/28 08:40:54;;;;;;;2.15;0.90;;;;;;;12.97;100.00;101506.84;7389333;19;20339;-47
2022/04/28 08:43:41;;;;;;;2.72;1.77;;;;;;;13.03;100.00;101513.41;7389951;19;20124;-47
2022/04/28 08:48:56;;;;;;;1.40;1.17;;;;;;;13.15;100.00;101512.59;7388306;19;20007;-47
2022/04/28 08:51:26;;;;;;;0.73;0.50;;;;;;;13.23;100.00;101501.97;7390853;19;20034;-47
2022/04/28 08:53:54;;;;;;;0.70;0.70;;;;;;;13.25;100.00;101494.69;7389719;19;20014;-47
2022/04/28 08:56:24;;;;;;;1.33;0.93;;;;;;;13.24;100.00;101498.69;7389524;19;20007;-48
2022/04/28 08:58:53;;;;;;;3.80;1.08;;;;;;;13.35;100.00;101513.09;7388895;19;20082;-48
2022/04/28 09:01:27;;;;;;;;;;;;;;;13.45;100.00;101523.09;7392077;19;20010;-48
2022/04/28 09:04:22;;;;;;;1.35;1.05;;;;;;;13.73;100.00;101524.06;7387610;19;19945;-48
2022/04/28 09:07:08;;;;;;;1.38;1.05;;;;;;;13.78;100.00;101531.09;7390918;19;20474;-48
2022/04/28 09:09:53;;;;;;;3.78;1.13;;;;;;;13.81;100.00;101535.81;7390094;19;20052;-48
2022/04/28 09:12:54;;;;;;;1.65;1.33;;;;;;;13.72;100.00;101536.53;7394896;19;20039;-48
2022/04/28 09:15:38;;;;;;;1.63;1.00;;;;;;;13.65;100.00;101525.59;7388242;19;20011;-48
2022/04/28 09:18:15;;;;;;;1.60;1.17;;;;;;;13.52;100.00;101525.66;7387654;19;20469;-48
2022/04/28 09:20:43;;;;;;;9.18;1.25;;;;;;;13.61;100.00;101517.31;7387673;19;20015;-48
2022/04/28 09:23:11;;;;;;;2.53;0.80;;;;;;;13.64;100.00;101524.81;7387677;19;20358;-48
2022/04/28 09:25:43;;;;;;;3.22;1.67;;;;;;;13.71;100.00;101526.56;7388510;19;20537;-48
2022/04/28 09:28:11;;;;;;;3.63;1.45;;;;;;;13.74;100.00;101524.88;7388247;19;20611;-48
2022/04/28 09:30:46;;;;;;;3.60;0.85;;;;;;;13.80;100.00;101517.44;7389365;19;20012;-48
2022/04/28 09:33:32;;;;;;;3.28;1.20;;;;;;;13.91;100.00;101517.81;7388765;19;20007;-48
2022/04/28 09:36:17;;;;;;;1.65;1.40;;;;;;;13.92;100.00;101519.38;7389177;19;20025;-48
2022/04/28 09:44:55;;;;;;;3.03;1.42;;;;;;;14.03;100.00;101514.16;7388119;19;20018;-48
2022/04/28 09:47:24;;;;;;;1.25;1.10;;;;;;;14.06;100.00;101513.22;7391979;19;20467;-48
2022/04/28 09:49:57;;;;;;;2.58;0.93;;;;;;;13.96;100.00;101508.81;7388604;19;20010;-48
2022/04/28 09:52:26;;;;;;;5.72;1.55;;;;;;;13.93;100.00;101510.50;7400548;19;20051;-48
2022/04/28 09:55:12;;;;;;;3.33;1.05;;;;;;;13.81;100.00;101519.00;7397405;19;20022;-48
2022/04/28 09:58:14;;;;;;;1.48;0.77;;;;;;;13.82;100.00;101512.94;7394943;19;20003;-48
2022/04/28 10:00:41;;;;;;;2.65;1.77;;;;;;;13.74;100.00;101514.44;7395092;19;20343;-48
2022/04/28 10:03:11;;;;;;;1.58;1.33;;;;;;;13.72;100.00;101510.53;7398121;19;20019;-48
2022/04/28 10:05:39;;;;;;;4.45;0.80;;;;;;;12.97;100.00;101511.63;7397356;19;20011;-48
2022/04/28 10:08:25;;;;;;;3.85;1.58;;;;;;;12.14;100.00;101521.13;7399114;19;20078;-48
2022/04/28 10:10:56;;;;;;;4.13;1.70;;;;;;;11.96;100.00;101515.28;7395401;19;20108;-48
2022/04/28 10:13:23;;;;;;;4.53;1.98;;;;;;;11.84;100.00;101527.22;7392431;19;20463;-48
2022/04/28 10:16:00;;;;;;;1.85;1.67;;;;;;;12.02;100.00;101521.88;7395944;19;20018;-48
2022/04/28 10:18:37;;;;;;;2.90;1.98;;;;;;;11.96;100.00;101520.88;7394792;19;20042;-48
2022/04/28 10:21:08;;;;;;;5.70;1.67;;;;;;;11.96;100.00;101526.44;7394528;19;20014;-48
2022/04/28 10:32:59;;;;;;;1.98;0.98;;;;;;;11.86;100.00;101526.78;7399287;19;20023;-48
2022/04/28 10:35:40;;;;;;;3.60;0.95;;;;;;;11.81;100.00;101519.72;7393998;19;20015;-48
2022/04/28 10:38:22;;;;;;;3.78;0.80;;;;;;;11.94;100.00;101520.53;7396765;19;20015;-48
2022/04/28 10:40:57;;;;;;;1.02;1.02;;;;;;;11.99;100.00;101520.00;7396443;19;20097;-48
2022/04/28 10:43:33;;;;;;;1.55;1.38;;;;;;;11.91;100.00;101515.06;7399624;19;20006;-48
2022/04/28 10:46:01;;;;;;;13.20;2.17;;;;;;;12.32;100.00;101511.41;7399038;19;20023;-48
2022/04/28 10:48:33;;;;;;;3.42;1.70;;;;;;;12.69;100.00;101514.13;7395768;19;20019;-48
2022/04/28 10:51:30;;;;;;;10.00;1.48;;;;;;;13.55;100.00;101515.56;7399056;19;20018;-48
2022/04/28 10:54:01;;;;;;;6.85;1.10;;;;;;;13.87;100.00;101511.56;7395334;19;20117;-48
2022/04/28 10:56:44;;;;;;;2.67;0.80;;;;;;;14.03;100.00;101514.16;7396064;19;20118;-48
2022/04/28 10:59:25;;;;;;;3.22;0.98;;;;;;;14.26;100.00;101510.84;7396317;19;20018;-57
2022/04/28 11:01:51;;;;;;;6.20;1.63;;;;;;;14.27;100.00;101512.41;7395289;19;20078;-57
2022/04/28 11:04:22;;;;;;;1.77;1.27;;;;;;;14.09;100.00;101524.31;7392449;19;20010;-56
2022/04/28 11:06:58;;;;;;;0.47;0.47;;;;;;;13.93;100.00;101521.72;7392772;19;20014;-55
2022/04/28 11:09:35;;;;;;;2.88;0.50;;;;;;;13.92;100.00;101527.78;7395525;19;20026;-56
2022/04/28 11:12:18;;;;;;;2.15;1.33;;;;;;;14.01;100.00;101527.84;7398491;19;20010;-57
2022/04/28 11:15:03;;;;;;;1.13;1.05;;;;;;;14.17;100.00;101525.59;7394468;19;20014;-55
2022/04/28 11:17:36;;;;;;;2.83;1.27;;;;;;;14.28;100.00;101525.16;7398477;19;20010;-56
2022/04/28 11:20:10;;;;;;;10.38;1.67;;;;;;;14.30;100.00;101522.72;7393733;19;20022;-56
2022/04/28 11:22:43;;;;;;;2.05;1.27;;;;;;;14.35;100.00;101522.91;7396656;19;20015;-56
2022/04/28 11:25:14;;;;;;;0.68;0.52;;;;;;;14.30;100.00;101519.91;7392480;19;20361;-56
2022/04/28 11:27:45;;;;;;;1.50;0.95;;;;;;;14.18;100.00;101526.38;7393076;19;20031;-56
2022/04/28 11:30:19;;;;;;;1.65;1.13;;;;;;;14.12;100.00;101531.03;7392588;19;20034;-55
2022/04/28 11:32:59;;;;;;;1.95;0.88;;;;;;;13.98;100.00;101531.56;7394015;19;20017;-56
2022/04/28 11:35:31;;;;;;;1.60;0.85;;;;;;;13.85;100.00;101533.66;7393772;19;20018;-56
2022/04/28 11:37:57;;;;;;;2.40;1.52;;;;;;;13.93;100.00;101532.91;7393241;19;20341;-55
2022/04/28 11:40:24;;;;;;;4.75;1.35;;;;;;;14.18;100.00;101537.59;7393002;19;20020;-56
2022/04/28 11:43:02;;;;;;;1.80;1.27;;;;;;;14.21;100.00;101542.25;7391617;19;20040;-57
2022/04/28 11:45:31;;;;;;;6.18;1.67;;;;;;;14.12;100.00;101540.19;7393102;19;20355;-56
2022/04/28 11:48:01;;;;;;;2.97;0.95;;;;;;;14.07;100.00;101542.81;7392244;19;20070;-55
2022/04/28 11:50:34;;;;;;;5.30;1.73;;;;;;;14.18;100.00;101543.97;7392835;19;20034;-56
2022/04/28 11:53:03;;;;;;;2.72;0.93;;;;;;;14.24;100.00;101533.72;7392930;19;20011;-55
2022/04/28 11:55:33;;;;;;;4.13;1.27;;;;;;;14.38;100.00;101529.59;7392889;19;20039;-55
2022/04/28 11:57:59;;;;;;;13.45;1.45;;;;;;;14.42;100.00;101536.63;7392494;19;20097;-56
2022/04/28 12:00:26;;;;;;;4.97;1.52;;;;;;;14.54;100.00;101523.75;7391262;19;20034;-57
2022/04/28 12:02:53;;;;;;;0.70;0.52;;;;;;;14.50;100.00;101520.31;7391422;19;20015;-56
2022/04/28 12:05:22;;;;;;;4.45;1.42;;;;;;;14.65;100.00;101518.47;7393055;19;20020;-57
2022/04/28 12:07:52;;;;;;;3.08;1.60;;;;;;;14.77;100.00;101511.19;7392679;19;20035;-56
2022/04/28 12:15:57;;;;;;;1.98;0.93;;;;;;;14.89;100.00;101505.44;7394273;19;20011;-56
2022/04/28 12:21:32;;;;;;;4.40;1.45;;;;;;;14.87;100.00;101516.34;7395426;19;20010;-56
2022/04/28 12:24:00;;;;;;;2.60;1.27;;;;;;;14.85;100.00;101510.44;7393362;19;20011;-56
2022/04/28 12:26:32;;;;;;;3.60;1.92;;;;;;;14.84;100.00;101511.66;7395129;19;20010;-56